createdAt,value
2022-08-18T00:00:15.296Z,15.72
2022-08-18T00:00:42.735Z,15.72
2022-08-18T00:01:15.874Z,15.72
2022-08-18T00:01:47.090Z,15.72
2022-08-18T00:02:19.016Z,15.72
2022-08-18T00:02:41.811Z,15.72
2022-08-18T00:03:11.735Z,15.72
2022-08-18T00:03:56.219Z,15.77
2022-08-18T00:04:24.308Z,15.77
2022-08-18T00:04:49.057Z,15.77
2022-08-18T00:05:14.837Z,15.77
2022-08-18T00:05:46.647Z,15.77
2022-08-18T00:06:18.693Z,15.72
2022-08-18T00:06:42.311Z,15.72
2022-08-18T00:07:04.351Z,15.72
2022-08-18T00:07:38.785Z,15.72
2022-08-18T00:08:12.113Z,15.61
2022-08-18T00:08:42.930Z,15.61
2022-08-18T00:09:14.879Z,15.61
2022-08-18T00:09:46.862Z,15.61
2022-08-18T00:10:19.062Z,15.61
2022-08-18T00:10:41.311Z,15.61
2022-08-18T00:11:03.839Z,15.61
2022-08-18T00:11:40.457Z,15.61
2022-08-18T00:12:10.726Z,15.61
2022-08-18T00:12:42.848Z,15.61
2022-08-18T00:13:14.841Z,15.61
2022-08-18T00:13:46.757Z,15.61
2022-08-18T00:14:21.537Z,15.61
2022-08-18T00:14:42.261Z,15.61
2022-08-18T00:15:04.687Z,15.88
2022-08-18T00:15:41.639Z,15.88
2022-08-18T00:16:10.781Z,15.61
2022-08-18T00:16:43.097Z,15.77
2022-08-18T00:17:14.736Z,15.77
2022-08-18T00:17:46.757Z,15.77
2022-08-18T00:18:18.715Z,15.77
2022-08-18T00:18:41.588Z,15.77
2022-08-18T00:19:09.135Z,15.72
2022-08-18T00:19:46.193Z,15.72
2022-08-18T00:20:10.659Z,15.72
2022-08-18T00:20:43.156Z,15.72
2022-08-18T00:21:14.750Z,15.72
2022-08-18T00:21:46.611Z,15.61
2022-08-18T00:22:18.765Z,15.61
2022-08-18T00:22:41.549Z,15.61
2022-08-18T00:23:03.811Z,15.61
2022-08-18T00:23:38.882Z,15.61
2022-08-18T00:24:10.744Z,15.61
2022-08-18T00:24:47.486Z,15.50
2022-08-18T00:25:16.147Z,15.50
2022-08-18T00:25:46.813Z,15.50
2022-08-18T00:26:18.824Z,15.50
2022-08-18T00:26:41.392Z,15.50
2022-08-18T00:27:03.701Z,15.50
2022-08-18T00:27:38.814Z,15.38
2022-08-18T00:28:10.577Z,15.38
2022-08-18T00:28:42.728Z,15.38
2022-08-18T00:29:14.621Z,15.38
2022-08-18T00:29:46.627Z,15.50
2022-08-18T00:30:18.718Z,15.50
2022-08-18T00:30:41.766Z,15.50
2022-08-18T00:31:04.010Z,15.50
2022-08-18T00:31:38.719Z,15.61
2022-08-18T00:32:11.057Z,15.77
2022-08-18T00:32:42.646Z,15.61
2022-08-18T00:33:16.221Z,15.61
2022-08-18T00:33:46.633Z,15.77
2022-08-18T00:34:25.232Z,15.77
2022-08-18T00:34:41.582Z,15.77
2022-08-18T00:35:03.907Z,15.77
2022-08-18T00:35:38.893Z,15.77
2022-08-18T00:36:11.027Z,15.77
2022-08-18T00:36:42.795Z,15.77
2022-08-18T00:37:14.620Z,15.77
2022-08-18T00:37:47.383Z,15.72
2022-08-18T00:38:23.604Z,15.72
2022-08-18T00:38:41.678Z,15.72
2022-08-18T00:39:04.426Z,15.77
2022-08-18T00:39:40.671Z,15.72
2022-08-18T00:40:10.707Z,15.77
2022-08-18T00:40:42.918Z,15.77
2022-08-18T00:41:16.129Z,15.77
2022-08-18T00:41:47.371Z,15.77
2022-08-18T00:42:28.879Z,16.00
2022-08-18T00:42:41.375Z,16.00
2022-08-18T00:43:04.735Z,15.88
2022-08-18T00:43:38.863Z,15.88
2022-08-18T00:44:10.691Z,15.88
2022-08-18T00:44:42.659Z,15.88
2022-08-18T00:45:14.730Z,15.88
2022-08-18T00:45:46.595Z,16.00
2022-08-18T00:46:18.892Z,16.11
2022-08-18T00:46:42.489Z,16.11
2022-08-18T00:47:06.672Z,16.11
2022-08-18T00:47:42.768Z,16.11
2022-08-18T00:48:10.692Z,16.22
2022-08-18T00:48:48.265Z,16.22
2022-08-18T00:49:14.693Z,16.27
2022-08-18T00:49:46.570Z,16.38
2022-08-18T00:50:18.683Z,16.38
2022-08-18T00:50:41.526Z,16.38
2022-08-18T00:51:05.525Z,16.38
2022-08-18T00:51:38.571Z,16.38
2022-08-18T00:52:10.642Z,16.38
2022-08-18T00:52:42.593Z,16.38
2022-08-18T00:53:14.757Z,16.38
2022-08-18T00:53:46.657Z,16.38
2022-08-18T00:54:18.718Z,16.38
2022-08-18T00:54:41.451Z,16.38
2022-08-18T00:55:05.779Z,16.38
2022-08-18T00:55:38.702Z,16.38
2022-08-18T00:56:10.881Z,16.38
2022-08-18T00:56:42.721Z,16.38
2022-08-18T00:57:14.670Z,16.38
2022-08-18T00:57:46.802Z,16.38
2022-08-18T00:58:18.568Z,16.38
2022-08-18T00:58:41.357Z,16.38
2022-08-18T00:59:03.683Z,16.38
2022-08-18T00:59:38.890Z,16.27
2022-08-18T01:00:10.852Z,16.27
2022-08-18T01:00:43.244Z,16.27
2022-08-18T01:01:15.388Z,16.27
2022-08-18T01:01:47.043Z,16.27
2022-08-18T01:02:18.553Z,16.22
2022-08-18T01:02:41.452Z,16.22
2022-08-18T01:03:03.815Z,16.22
2022-08-18T01:03:42.176Z,16.22
2022-08-18T01:04:10.698Z,16.22
2022-08-18T01:04:42.677Z,16.38
2022-08-18T01:05:14.753Z,16.38
2022-08-18T01:05:46.553Z,16.50
2022-08-18T01:06:18.674Z,16.61
2022-08-18T01:06:41.470Z,16.61
2022-08-18T01:07:03.947Z,16.38
2022-08-18T01:07:38.720Z,16.38
2022-08-18T01:08:10.790Z,16.38
2022-08-18T01:08:42.582Z,16.38
2022-08-18T01:09:14.623Z,16.27
2022-08-18T01:09:47.186Z,16.27
2022-08-18T01:10:18.689Z,16.27
2022-08-18T01:10:41.441Z,16.27
2022-08-18T01:11:03.795Z,16.22
2022-08-18T01:11:38.892Z,16.22
2022-08-18T01:12:20.797Z,16.22
2022-08-18T01:12:49.916Z,16.22
2022-08-18T01:13:13.452Z,16.22
2022-08-18T01:13:46.849Z,16.22
2022-08-18T01:14:18.703Z,16.22
2022-08-18T01:14:41.305Z,16.38
2022-08-18T01:15:07.306Z,16.22
2022-08-18T01:15:38.692Z,16.22
2022-08-18T01:16:10.856Z,16.11
2022-08-18T01:16:56.955Z,16.11
2022-08-18T01:17:14.830Z,16.11
2022-08-18T01:17:46.680Z,16.27
2022-08-18T01:18:18.750Z,16.27
2022-08-18T01:18:44.679Z,16.27
2022-08-18T01:19:05.450Z,16.27
2022-08-18T01:19:38.693Z,16.27
2022-08-18T01:20:10.652Z,16.27
2022-08-18T01:20:42.820Z,16.22
2022-08-18T01:21:14.572Z,16.22
2022-08-18T01:21:46.614Z,16.22
2022-08-18T01:22:18.639Z,16.22
2022-08-18T01:22:41.439Z,16.22
2022-08-18T01:23:03.891Z,16.22
2022-08-18T01:23:38.621Z,16.22
2022-08-18T01:24:10.887Z,16.11
2022-08-18T01:24:45.151Z,16.11
2022-08-18T01:25:16.106Z,16.00
2022-08-18T01:25:46.526Z,16.00
2022-08-18T01:26:18.644Z,16.00
2022-08-18T01:26:45.691Z,16.00
2022-08-18T01:27:04.329Z,16.00
2022-08-18T01:27:38.599Z,16.00
2022-08-18T01:28:10.607Z,15.88
2022-08-18T01:28:43.182Z,15.88
2022-08-18T01:29:19.072Z,15.88
2022-08-18T01:34:53.864Z,16.22
2022-08-18T01:35:16.447Z,16.22
2022-08-18T01:35:47.283Z,16.22
2022-08-18T01:36:10.682Z,16.22
2022-08-18T01:36:42.715Z,16.22
2022-08-18T01:37:15.261Z,16.22
2022-08-18T01:37:46.748Z,16.22
2022-08-18T01:38:18.720Z,16.27
2022-08-18T01:38:41.584Z,16.27
2022-08-18T01:39:04.620Z,16.27
2022-08-18T01:41:23.494Z,16.38
2022-08-18T01:41:31.377Z,16.50
2022-08-18T01:41:53.512Z,16.50
2022-08-18T01:42:16.125Z,16.50
2022-08-18T01:42:47.328Z,16.50
2022-08-18T01:43:25.250Z,16.50
2022-08-18T01:43:55.570Z,16.61
2022-08-18T01:44:28.122Z,16.50
2022-08-18T01:44:59.279Z,16.50
2022-08-18T01:45:30.656Z,16.50
2022-08-18T01:45:53.533Z,16.50
2022-08-18T01:46:15.843Z,16.50
2022-08-18T01:46:48.784Z,16.50
2022-08-18T01:47:22.761Z,16.50
2022-08-18T01:47:47.726Z,16.38
2022-08-18T01:48:07.876Z,16.38
2022-08-18T01:48:42.811Z,16.38
2022-08-18T01:49:19.881Z,16.27
2022-08-18T01:49:46.694Z,16.27
2022-08-18T01:50:16.222Z,16.22
2022-08-18T01:50:47.553Z,16.22
2022-08-18T01:51:38.889Z,16.22
2022-08-18T01:51:45.598Z,16.22
2022-08-18T01:52:09.313Z,16.11
2022-08-18T01:52:42.602Z,16.11
2022-08-18T01:53:14.740Z,16.00
2022-08-18T01:53:46.844Z,16.00
2022-08-18T01:54:19.048Z,16.00
2022-08-18T01:54:41.607Z,16.00
2022-08-18T01:55:05.311Z,16.00
2022-08-18T01:55:38.743Z,15.88
2022-08-18T01:56:10.875Z,15.88
2022-08-18T01:56:42.596Z,15.88
2022-08-18T01:57:14.710Z,15.77
2022-08-18T01:57:46.686Z,15.77
2022-08-18T01:58:18.739Z,15.77
2022-08-18T01:58:41.608Z,15.77
2022-08-18T01:59:04.284Z,15.77
2022-08-18T01:59:39.115Z,15.77
2022-08-18T02:00:12.491Z,15.77
2022-08-18T02:00:43.103Z,15.77
2022-08-18T02:01:21.254Z,15.77
2022-08-18T02:01:53.105Z,16.00
2022-08-18T02:02:19.064Z,16.00
2022-08-18T02:02:41.324Z,16.00
2022-08-18T02:03:04.370Z,16.11
2022-08-18T02:03:42.107Z,16.11
2022-08-18T02:04:33.704Z,16.27
2022-08-18T02:04:44.093Z,16.27
2022-08-18T02:05:14.855Z,16.38
2022-08-18T02:05:46.618Z,16.27
2022-08-18T02:06:18.614Z,16.27
2022-08-18T02:06:42.371Z,16.27
2022-08-18T02:07:04.318Z,16.27
2022-08-18T02:07:40.229Z,16.27
2022-08-18T02:08:10.626Z,16.22
2022-08-18T02:08:46.415Z,16.22
2022-08-18T02:09:16.818Z,16.11
2022-08-18T02:09:47.304Z,16.00
2022-08-18T02:10:18.665Z,16.00
2022-08-18T02:10:41.474Z,16.00
2022-08-18T02:11:04.290Z,15.88
2022-08-18T02:11:39.735Z,15.88
2022-08-18T02:12:10.929Z,15.77
2022-08-18T02:12:42.651Z,15.77
2022-08-18T02:13:16.112Z,15.77
2022-08-18T02:13:48.870Z,15.77
2022-08-18T02:14:26.960Z,15.77
2022-08-18T02:14:43.702Z,15.88
2022-08-18T02:15:06.312Z,15.88
2022-08-18T02:15:41.461Z,15.88
2022-08-18T02:16:10.620Z,15.88
2022-08-18T02:16:45.555Z,16.00
2022-08-18T02:17:15.859Z,16.00
2022-08-18T02:17:47.356Z,16.11
2022-08-18T02:18:30.440Z,16.11
2022-08-18T02:18:50.696Z,16.22
2022-08-18T02:19:22.994Z,16.27
2022-08-18T02:19:45.730Z,16.27
2022-08-18T02:20:08.875Z,16.27
2022-08-18T02:20:44.726Z,16.27
2022-08-18T02:21:19.093Z,16.27
2022-08-18T02:21:46.708Z,16.27
2022-08-18T02:22:22.286Z,16.27
2022-08-18T02:22:44.802Z,16.27
2022-08-18T02:23:23.098Z,16.27
2022-08-18T02:23:52.973Z,16.27
2022-08-18T02:24:07.870Z,16.27
2022-08-18T02:24:49.457Z,16.27
2022-08-18T02:25:17.794Z,16.27
2022-08-18T02:25:52.169Z,16.27
2022-08-18T02:26:22.207Z,16.27
2022-08-18T02:26:41.401Z,16.27
2022-08-18T02:27:03.845Z,16.27
2022-08-18T02:27:38.686Z,16.27
2022-08-18T02:28:10.556Z,16.27
2022-08-18T02:28:43.093Z,16.27
2022-08-18T02:29:14.510Z,16.27
2022-08-18T02:29:46.715Z,16.27
2022-08-18T02:30:20.131Z,16.22
2022-08-18T02:30:41.890Z,16.22
2022-08-18T02:31:04.492Z,16.22
2022-08-18T02:31:38.679Z,16.22
2022-08-18T02:32:08.692Z,16.22
2022-08-18T02:32:42.893Z,16.22
2022-08-18T02:33:14.944Z,16.22
2022-08-18T02:33:52.281Z,16.22
2022-08-18T02:34:19.493Z,16.11
2022-08-18T02:34:42.283Z,16.11
2022-08-18T02:35:04.672Z,16.11
2022-08-18T02:35:38.619Z,16.11
2022-08-18T02:36:10.555Z,16.00
2022-08-18T02:36:42.769Z,16.00
2022-08-18T02:37:15.544Z,15.88
2022-08-18T02:37:46.668Z,15.88
2022-08-18T02:38:18.857Z,15.72
2022-08-18T02:38:41.332Z,15.72
2022-08-18T02:39:12.526Z,15.72
2022-08-18T02:39:33.383Z,15.72
2022-08-18T02:40:10.911Z,15.72
2022-08-18T02:40:42.543Z,15.72
2022-08-18T02:41:14.617Z,15.72
2022-08-18T02:41:46.475Z,15.72
2022-08-18T02:42:19.319Z,15.72
2022-08-18T02:42:41.898Z,15.72
2022-08-18T02:43:04.721Z,15.88
2022-08-18T02:43:38.622Z,15.88
2022-08-18T02:44:11.076Z,15.88
2022-08-18T02:44:43.940Z,15.88
2022-08-18T02:45:14.600Z,16.00
2022-08-18T02:45:46.552Z,16.00
2022-08-18T02:46:19.743Z,16.00
2022-08-18T02:46:41.733Z,16.00
2022-08-18T02:47:04.347Z,16.00
2022-08-18T02:47:40.066Z,16.00
2022-08-18T02:48:10.509Z,16.00
2022-08-18T02:48:42.455Z,16.00
2022-08-18T02:49:14.515Z,16.00
2022-08-18T02:49:46.462Z,16.00
2022-08-18T02:50:15.698Z,16.00
2022-08-18T02:50:48.841Z,16.00
2022-08-18T02:51:22.771Z,16.00
2022-08-18T02:51:46.025Z,15.88
2022-08-18T02:52:08.230Z,15.88
2022-08-18T02:52:42.552Z,15.88
2022-08-18T02:53:15.429Z,15.88
2022-08-18T02:53:46.522Z,15.88
2022-08-18T02:54:18.582Z,16.00
2022-08-18T02:54:41.259Z,16.00
2022-08-18T02:55:03.795Z,16.11
2022-08-18T02:55:38.707Z,16.11
2022-08-18T02:56:10.447Z,16.11
2022-08-18T02:56:47.027Z,16.11
2022-08-18T02:57:15.100Z,16.11
2022-08-18T02:57:50.124Z,16.11
2022-08-18T02:58:15.837Z,16.11
2022-08-18T02:58:47.357Z,16.11
2022-08-18T02:59:25.085Z,16.11
2022-08-18T02:59:47.456Z,16.00
2022-08-18T03:00:12.976Z,16.00
2022-08-18T03:00:42.587Z,15.88
2022-08-18T03:01:20.162Z,15.88
2022-08-18T03:01:50.068Z,15.77
2022-08-18T03:02:18.519Z,15.77
2022-08-18T03:02:41.810Z,15.77
2022-08-18T03:03:03.946Z,15.72
2022-08-18T03:03:39.122Z,15.61
2022-08-18T03:04:10.530Z,15.50
2022-08-18T03:04:43.111Z,15.50
2022-08-18T03:05:14.965Z,15.50
2022-08-18T03:05:46.601Z,15.50
2022-08-18T03:06:18.521Z,15.61
2022-08-18T03:06:41.917Z,15.61
2022-08-18T03:07:04.305Z,15.61
2022-08-18T03:07:40.123Z,15.61
2022-08-18T03:08:10.410Z,15.61
2022-08-18T03:08:42.625Z,15.61
2022-08-18T03:09:16.059Z,15.61
2022-08-18T03:09:47.071Z,15.61
2022-08-18T03:10:32.959Z,15.61
2022-08-18T03:10:41.189Z,15.61
2022-08-18T03:11:03.527Z,15.72
2022-08-18T03:11:38.912Z,15.72
2022-08-18T03:12:10.580Z,15.77
2022-08-18T03:12:42.537Z,15.77
2022-08-18T03:13:14.525Z,15.77
2022-08-18T03:13:49.036Z,15.77
2022-08-18T03:14:15.933Z,15.77
2022-08-18T03:14:47.393Z,15.77
2022-08-18T03:15:24.161Z,15.77
2022-08-18T03:15:45.692Z,15.77
2022-08-18T03:16:07.987Z,15.77
2022-08-18T03:16:47.174Z,15.77
2022-08-18T03:17:15.076Z,15.77
2022-08-18T03:17:50.054Z,15.77
2022-08-18T03:18:18.621Z,15.72
2022-08-18T03:18:41.138Z,15.72
2022-08-18T03:19:06.147Z,15.72
2022-08-18T03:19:38.435Z,15.72
2022-08-18T03:20:10.390Z,15.72
2022-08-18T03:20:43.021Z,15.72
2022-08-18T03:21:14.513Z,15.61
2022-08-18T03:21:46.562Z,15.61
2022-08-18T03:22:28.181Z,15.61
2022-08-18T03:22:41.380Z,15.50
2022-08-18T03:23:05.816Z,15.50
2022-08-18T03:23:38.592Z,15.50
2022-08-18T03:24:09.304Z,15.50
2022-08-18T03:24:45.536Z,15.50
2022-08-18T03:25:16.259Z,15.38
2022-08-18T03:25:46.861Z,15.38
2022-08-18T03:26:19.302Z,15.38
2022-08-18T03:26:41.916Z,15.38
2022-08-18T03:27:04.322Z,15.38
2022-08-18T03:27:38.701Z,15.27
2022-08-18T03:28:10.563Z,15.27
2022-08-18T03:28:42.660Z,15.27
2022-08-18T03:29:14.960Z,15.27
2022-08-18T03:29:47.446Z,15.22
2022-08-18T03:30:18.693Z,15.22
2022-08-18T03:30:41.213Z,15.22
2022-08-18T03:31:04.100Z,15.22
2022-08-18T03:31:38.708Z,15.22
2022-08-18T03:32:11.060Z,15.22
2022-08-18T03:32:43.055Z,15.22
2022-08-18T03:33:15.311Z,15.22
2022-08-18T03:33:47.850Z,15.22
2022-08-18T03:34:26.377Z,15.22
2022-08-18T03:34:54.967Z,15.11
2022-08-18T03:35:17.754Z,15.11
2022-08-18T03:35:41.656Z,15.11
2022-08-18T03:36:11.241Z,15.11
2022-08-18T03:36:43.013Z,15.11
2022-08-18T03:37:14.767Z,15.11
2022-08-18T03:37:47.917Z,15.11
2022-08-18T03:38:18.545Z,15.11
2022-08-18T03:38:41.124Z,15.11
2022-08-18T03:39:07.896Z,15.22
2022-08-18T03:39:38.721Z,15.22
2022-08-18T03:40:12.208Z,15.22
2022-08-18T03:40:49.679Z,15.22
2022-08-18T03:41:09.704Z,15.22
2022-08-18T03:41:59.564Z,15.11
2022-08-18T03:42:18.561Z,15.00
2022-08-18T03:42:42.952Z,15.00
2022-08-18T03:43:05.384Z,15.00
2022-08-18T03:43:55.558Z,14.88
2022-08-18T03:44:27.302Z,14.88
2022-08-18T03:44:49.345Z,14.88
2022-08-18T03:45:18.279Z,14.88
2022-08-18T03:45:40.486Z,14.77
2022-08-18T03:46:15.878Z,14.77
2022-08-18T03:46:47.600Z,14.77
2022-08-18T03:47:22.548Z,14.77
2022-08-18T03:47:45.665Z,14.77
2022-08-18T03:48:07.819Z,14.77
2022-08-18T03:48:42.579Z,14.77
2022-08-18T03:49:14.767Z,14.77
2022-08-18T03:49:46.621Z,14.77
2022-08-18T03:50:18.519Z,14.77
2022-08-18T03:50:41.157Z,14.77
2022-08-18T03:51:05.398Z,14.77
2022-08-18T03:51:38.797Z,14.77
2022-08-18T03:52:10.548Z,14.77
2022-08-18T03:52:42.548Z,14.77
2022-08-18T03:53:14.600Z,14.77
2022-08-18T03:53:46.965Z,14.77
2022-08-18T03:54:18.385Z,14.77
2022-08-18T03:54:41.990Z,14.77
2022-08-18T03:55:04.331Z,14.88
2022-08-18T03:55:38.367Z,14.88
2022-08-18T03:56:10.915Z,14.88
2022-08-18T03:56:42.453Z,14.88
2022-08-18T03:57:14.620Z,14.88
2022-08-18T03:57:46.346Z,14.88
2022-08-18T03:58:15.756Z,14.77
2022-08-18T03:58:47.441Z,14.77
2022-08-18T03:59:22.585Z,14.72
2022-08-18T03:59:45.385Z,14.72
2022-08-18T04:00:28.803Z,14.72
2022-08-18T04:00:49.082Z,14.72
2022-08-18T04:01:13.537Z,14.72
2022-08-18T04:01:50.036Z,14.61
2022-08-18T04:02:15.648Z,14.61
2022-08-18T04:02:47.515Z,14.61
2022-08-18T04:03:22.686Z,14.61
2022-08-18T04:03:46.861Z,14.61
2022-08-18T04:04:09.348Z,14.50
2022-08-18T04:04:43.275Z,14.50
2022-08-18T04:05:14.673Z,14.50
2022-08-18T04:05:46.592Z,14.50
2022-08-18T04:06:18.489Z,14.50
2022-08-18T04:06:41.266Z,14.50
2022-08-18T04:07:03.523Z,14.50
2022-08-18T04:07:38.498Z,14.38
2022-08-18T04:08:10.543Z,14.38
2022-08-18T04:08:42.549Z,14.38
2022-08-18T04:09:14.634Z,14.38
2022-08-18T04:09:44.005Z,14.38
2022-08-18T04:10:19.649Z,14.50
2022-08-18T04:10:48.195Z,14.50
2022-08-18T04:11:22.597Z,14.50
2022-08-18T04:11:45.297Z,14.50
2022-08-18T04:12:09.072Z,14.50
2022-08-18T04:12:43.007Z,14.61
2022-08-18T04:13:16.356Z,14.77
2022-08-18T04:13:46.600Z,14.77
2022-08-18T04:14:15.882Z,14.77
2022-08-18T04:14:47.412Z,14.88
2022-08-18T04:15:26.763Z,15.00
2022-08-18T04:15:45.795Z,15.00
2022-08-18T04:16:08.139Z,15.11
2022-08-18T04:16:42.567Z,15.11
2022-08-18T04:17:15.153Z,15.11
2022-08-18T04:17:55.979Z,15.11
2022-08-18T04:18:21.897Z,15.11
2022-08-18T04:18:44.481Z,15.11
2022-08-18T04:19:27.366Z,15.11
2022-08-18T04:19:44.943Z,15.11
2022-08-18T04:20:07.848Z,15.11
2022-08-18T04:20:59.471Z,15.11
2022-08-18T04:21:14.463Z,15.11
2022-08-18T04:21:46.476Z,15.11
2022-08-18T04:22:17.274Z,15.11
2022-08-18T04:22:47.813Z,15.11
2022-08-18T04:23:23.928Z,15.11
2022-08-18T04:23:45.490Z,15.11
2022-08-18T04:24:07.998Z,15.11
2022-08-18T04:24:45.724Z,15.11
2022-08-18T04:25:18.139Z,15.11
2022-08-18T04:25:46.773Z,15.11
2022-08-18T04:26:19.305Z,15.11
2022-08-18T04:26:41.291Z,15.11
2022-08-18T04:27:04.905Z,15.11
2022-08-18T04:27:38.458Z,15.22
2022-08-18T04:28:10.668Z,15.22
2022-08-18T04:28:42.514Z,15.22
2022-08-18T04:29:14.755Z,15.22
2022-08-18T04:29:46.539Z,15.27
2022-08-18T04:30:21.936Z,15.27
2022-08-18T04:30:47.718Z,15.27
2022-08-18T04:31:22.993Z,15.27
2022-08-18T04:31:45.583Z,15.27
2022-08-18T04:32:08.762Z,15.38
2022-08-18T04:32:42.763Z,15.50
2022-08-18T04:33:14.562Z,15.50
2022-08-18T04:33:46.567Z,15.50
2022-08-18T04:34:15.851Z,15.50
2022-08-18T04:34:51.280Z,15.50
2022-08-18T04:35:22.884Z,15.38
2022-08-18T04:35:45.657Z,15.38
2022-08-18T04:36:08.599Z,15.38
2022-08-18T04:36:42.546Z,15.38
2022-08-18T04:37:14.869Z,15.38
2022-08-18T04:37:46.485Z,15.27
2022-08-18T04:38:15.841Z,15.27
2022-08-18T04:38:49.948Z,15.27
2022-08-18T04:39:22.944Z,15.27
2022-08-18T04:39:45.660Z,15.27
2022-08-18T04:40:07.954Z,15.27
2022-08-18T04:40:45.132Z,15.27
2022-08-18T04:41:14.447Z,15.27
2022-08-18T04:41:53.330Z,15.27
2022-08-18T04:42:15.647Z,15.27
2022-08-18T04:42:47.383Z,15.27
2022-08-18T04:43:23.609Z,15.27
2022-08-18T04:43:47.841Z,15.27
2022-08-18T04:44:10.070Z,15.27
2022-08-18T04:44:42.633Z,15.27
2022-08-18T04:45:14.913Z,15.27
2022-08-18T04:45:46.444Z,15.27
2022-08-18T04:46:16.141Z,15.27
2022-08-18T04:46:47.527Z,15.27
2022-08-18T04:47:22.593Z,15.22
2022-08-18T04:47:45.545Z,15.22
2022-08-18T04:48:07.752Z,15.22
2022-08-18T04:48:42.528Z,15.27
2022-08-18T04:49:15.892Z,15.27
2022-08-18T04:49:46.524Z,15.27
2022-08-18T04:50:18.581Z,15.27
2022-08-18T04:50:41.160Z,15.27
2022-08-18T04:51:03.608Z,15.27
2022-08-18T04:52:37.897Z,15.27
2022-08-18T04:52:42.771Z,15.27
2022-08-18T04:53:15.883Z,15.27
2022-08-18T04:53:46.745Z,15.27
2022-08-18T04:54:18.947Z,15.27
2022-08-18T04:54:41.722Z,15.27
2022-08-18T04:55:04.435Z,15.27
2022-08-18T04:55:38.798Z,15.27
2022-08-18T04:56:10.426Z,15.27
2022-08-18T04:56:42.521Z,15.27
2022-08-18T04:57:16.664Z,15.27
2022-08-18T04:57:46.528Z,15.27
2022-08-18T04:58:16.060Z,15.27
2022-08-18T04:58:47.636Z,15.22
2022-08-18T04:59:22.553Z,15.22
2022-08-18T04:59:45.238Z,15.22
2022-08-18T05:00:10.404Z,15.22
2022-08-18T05:00:42.636Z,15.22
2022-08-18T05:01:15.003Z,15.22
2022-08-18T05:01:49.922Z,15.22
2022-08-18T05:02:15.889Z,15.22
2022-08-18T05:02:49.326Z,15.22
2022-08-18T05:03:22.618Z,15.22
2022-08-18T05:03:49.983Z,15.22
2022-08-18T05:04:07.584Z,15.22
2022-08-18T05:04:44.306Z,15.11
2022-08-18T05:05:14.520Z,15.00
2022-08-18T05:05:46.809Z,15.00
2022-08-18T05:06:19.003Z,15.00
2022-08-18T05:06:41.685Z,15.00
2022-08-18T05:07:04.204Z,15.00
2022-08-18T05:07:38.462Z,15.00
2022-08-18T05:08:10.517Z,15.00
2022-08-18T05:08:42.403Z,15.00
2022-08-18T05:09:16.797Z,15.11
2022-08-18T05:09:46.698Z,15.22
2022-08-18T05:10:16.011Z,15.22
2022-08-18T05:10:47.802Z,15.22
2022-08-18T05:11:30.615Z,15.22
2022-08-18T05:11:51.696Z,15.22
2022-08-18T05:12:26.873Z,15.22
2022-08-18T05:12:49.821Z,15.22
2022-08-18T05:13:12.114Z,15.22
2022-08-18T05:13:46.577Z,15.22
2022-08-18T05:14:18.387Z,15.22
2022-08-18T05:14:47.560Z,15.22
2022-08-18T05:15:22.745Z,15.22
2022-08-18T05:16:07.344Z,15.22
2022-08-18T05:16:27.614Z,15.22
2022-08-18T05:16:50.205Z,15.27
2022-08-18T05:17:11.794Z,15.27
2022-08-18T05:17:47.627Z,15.27
2022-08-18T05:18:16.664Z,15.38
2022-08-18T05:18:47.553Z,15.38
2022-08-18T05:19:23.386Z,15.38
2022-08-18T05:19:45.087Z,15.38
2022-08-18T05:20:07.490Z,15.38
2022-08-18T05:20:42.934Z,15.61
2022-08-18T05:21:15.031Z,15.61
2022-08-18T05:21:47.050Z,15.61
2022-08-18T05:22:15.894Z,15.72
2022-08-18T05:22:47.325Z,15.72
2022-08-18T05:23:23.284Z,15.72
2022-08-18T05:23:45.306Z,15.77
2022-08-18T05:24:07.642Z,15.88
2022-08-18T05:24:42.581Z,16.11
2022-08-18T05:25:19.951Z,16.11
2022-08-18T05:25:46.343Z,16.22
2022-08-18T05:26:15.906Z,16.27
2022-08-18T05:26:47.508Z,16.38
2022-08-18T05:27:22.515Z,16.61
2022-08-18T05:27:45.719Z,16.72
2022-08-18T05:28:07.978Z,16.72
2022-08-18T05:28:42.710Z,16.77
2022-08-18T05:29:18.494Z,16.77
2022-08-18T05:29:46.459Z,16.88
2022-08-18T05:30:15.816Z,16.88
2022-08-18T05:30:47.366Z,16.88
2022-08-18T05:31:22.535Z,16.88
2022-08-18T05:31:47.166Z,16.88
2022-08-18T05:32:09.979Z,16.88
2022-08-18T05:32:49.076Z,17.00
2022-08-18T05:33:14.306Z,17.00
2022-08-18T05:33:46.429Z,17.00
2022-08-18T05:34:15.700Z,17.00
2022-08-18T05:34:47.485Z,17.00
2022-08-18T05:35:25.839Z,17.00
2022-08-18T05:35:45.094Z,17.00
2022-08-18T05:36:07.664Z,17.00
2022-08-18T05:36:42.751Z,17.00
2022-08-18T05:37:14.569Z,17.00
2022-08-18T05:37:46.386Z,17.11
2022-08-18T05:38:15.860Z,17.11
2022-08-18T05:38:47.521Z,17.11
2022-08-18T05:39:22.512Z,17.11
2022-08-18T05:39:45.350Z,17.11
2022-08-18T05:40:11.003Z,17.11
2022-08-18T05:40:42.419Z,17.11
2022-08-18T05:41:14.573Z,17.11
2022-08-18T05:41:46.387Z,17.11
2022-08-18T05:42:15.707Z,17.11
2022-08-18T05:42:47.913Z,17.11
2022-08-18T05:43:22.471Z,17.11
2022-08-18T05:43:51.938Z,17.11
2022-08-18T05:44:13.374Z,17.11
2022-08-18T05:44:42.387Z,17.11
2022-08-18T05:45:15.922Z,17.11
2022-08-18T05:45:46.470Z,17.11
2022-08-18T05:46:18.381Z,17.11
2022-08-18T05:46:55.915Z,17.11
2022-08-18T05:47:18.591Z,17.11
2022-08-18T05:47:56.058Z,17.11
2022-08-18T05:48:27.054Z,17.22
2022-08-18T05:48:49.791Z,17.22
2022-08-18T05:49:12.696Z,17.22
2022-08-18T05:49:46.835Z,17.22
2022-08-18T05:50:18.417Z,17.22
2022-08-18T05:50:47.642Z,17.22
2022-08-18T05:51:22.492Z,17.22
2022-08-18T05:51:45.038Z,17.11
2022-08-18T05:52:08.043Z,17.22
2022-08-18T05:52:43.108Z,17.22
2022-08-18T05:53:14.827Z,17.22
2022-08-18T05:53:46.439Z,17.22
2022-08-18T05:54:16.158Z,17.22
2022-08-18T05:54:50.451Z,17.22
2022-08-18T05:55:22.666Z,17.22
2022-08-18T05:55:47.988Z,17.22
2022-08-18T05:56:08.043Z,17.22
2022-08-18T05:56:43.703Z,17.22
2022-08-18T05:57:14.441Z,17.22
2022-08-18T05:57:49.380Z,17.22
2022-08-18T05:58:12.143Z,17.22
2022-08-18T05:58:47.544Z,17.22
2022-08-18T05:59:22.499Z,17.22
2022-08-18T05:59:45.034Z,17.22
2022-08-18T06:00:07.493Z,17.22
2022-08-18T06:00:44.937Z,17.22
2022-08-18T06:01:15.813Z,17.22
2022-08-18T06:01:50.227Z,17.22
2022-08-18T06:02:18.359Z,17.22
2022-08-18T06:02:47.782Z,17.22
2022-08-18T06:03:22.784Z,17.22
2022-08-18T06:03:48.672Z,17.22
2022-08-18T06:04:26.316Z,17.22
2022-08-18T06:04:50.952Z,17.11
2022-08-18T06:05:11.819Z,17.11
2022-08-18T06:05:46.762Z,17.11
2022-08-18T06:06:15.726Z,17.11
2022-08-18T06:06:48.195Z,17.11
2022-08-18T06:07:22.373Z,17.22
2022-08-18T06:07:45.178Z,17.22
2022-08-18T06:08:07.416Z,17.22
2022-08-18T06:08:42.481Z,17.22
2022-08-18T06:09:15.008Z,17.22
2022-08-18T06:09:46.589Z,17.22
2022-08-18T06:10:15.804Z,17.27
2022-08-18T06:10:47.528Z,17.27
2022-08-18T06:11:27.976Z,17.27
2022-08-18T06:11:46.064Z,17.27
2022-08-18T06:12:07.846Z,17.22
2022-08-18T06:12:46.915Z,17.22
2022-08-18T06:13:14.923Z,17.22
2022-08-18T06:13:46.267Z,17.22
2022-08-18T06:14:18.760Z,17.27
2022-08-18T06:14:41.455Z,17.27
2022-08-18T06:15:05.844Z,17.27
2022-08-18T06:15:41.907Z,17.27
2022-08-18T06:16:10.347Z,17.27
2022-08-18T06:16:42.698Z,17.38
2022-08-18T06:17:14.286Z,17.38
2022-08-18T06:17:46.933Z,17.38
2022-08-18T06:18:18.367Z,17.38
2022-08-18T06:18:41.785Z,17.22
2022-08-18T06:19:04.066Z,17.22
2022-08-18T06:19:38.451Z,17.22
2022-08-18T06:20:11.005Z,17.27
2022-08-18T06:20:42.375Z,17.27
2022-08-18T06:21:14.452Z,17.27
2022-08-18T06:21:47.760Z,17.27
2022-08-18T06:22:18.346Z,17.38
2022-08-18T06:22:48.215Z,17.38
2022-08-18T06:23:22.503Z,17.11
2022-08-18T06:23:45.497Z,17.11
2022-08-18T06:24:11.262Z,17.22
2022-08-18T06:24:43.965Z,17.22
2022-08-18T06:25:19.940Z,17.27
2022-08-18T06:25:48.040Z,17.27
2022-08-18T06:26:18.615Z,17.27
2022-08-18T06:26:41.578Z,17.27
2022-08-18T06:27:03.839Z,17.22
2022-08-18T06:27:39.031Z,17.22
2022-08-18T06:28:10.299Z,17.22
2022-08-18T06:28:42.360Z,17.22
2022-08-18T06:29:14.258Z,17.22
2022-08-18T06:29:48.656Z,17.22
2022-08-18T06:30:18.396Z,17.22
2022-08-18T06:30:50.394Z,17.27
2022-08-18T06:31:26.060Z,17.27
2022-08-18T06:31:45.059Z,17.27
2022-08-18T06:32:07.497Z,17.27
2022-08-18T06:32:42.354Z,17.27